createdAt,value
2019-05-30T00:00:05.880Z,3.73
2019-05-30T00:02:22.069Z,3.50
2019-05-30T00:04:50.830Z,2.87
2019-05-30T00:07:19.487Z,3.40
2019-05-30T00:09:47.944Z,3.13
2019-05-30T00:12:16.602Z,3.47
2019-05-30T00:14:45.045Z,3.30
2019-05-30T00:17:13.542Z,3.80
2019-05-30T00:19:42.283Z,3.37
2019-05-30T00:22:10.686Z,3.73
2019-05-30T00:24:39.137Z,3.53
2019-05-30T00:27:07.637Z,4.30
2019-05-30T00:29:36.394Z,3.90
2019-05-30T00:32:05.471Z,3.87
2019-05-30T00:34:34.027Z,4.23
2019-05-30T00:37:02.434Z,3.70
2019-05-30T00:39:31.148Z,3.40
2019-05-30T00:42:00.029Z,3.70
2019-05-30T00:44:29.023Z,3.63
2019-05-30T00:46:58.034Z,3.40
2019-05-30T00:49:26.855Z,3.33
2019-05-30T00:51:56.356Z,3.23
2019-05-30T00:54:25.353Z,2.90
2019-05-30T00:56:54.055Z,4.00
2019-05-30T00:59:22.474Z,3.10
2019-05-30T01:01:51.310Z,2.57
2019-05-30T01:04:19.962Z,3.20
2019-05-30T01:06:48.392Z,3.30
2019-05-30T01:09:16.837Z,3.33
2019-05-30T01:11:45.559Z,3.30
2019-05-30T01:14:13.988Z,2.90
2019-05-30T01:16:43.046Z,3.70
2019-05-30T01:19:11.650Z,3.53
2019-05-30T01:21:40.814Z,3.23
2019-05-30T01:24:09.662Z,3.40
2019-05-30T01:26:38.421Z,3.40
2019-05-30T01:29:07.744Z,3.47
2019-05-30T01:31:37.018Z,3.60
2019-05-30T01:34:05.907Z,3.97
2019-05-30T01:36:34.448Z,3.80
2019-05-30T01:39:03.848Z,3.60
2019-05-30T01:41:32.326Z,3.70
2019-05-30T01:44:01.923Z,3.53
2019-05-30T01:46:30.434Z,4.13
2019-05-30T01:49:00.159Z,4.20
2019-05-30T01:51:28.848Z,4.40
2019-05-30T01:53:58.303Z,4.40
2019-05-30T01:56:26.869Z,5.10
2019-05-30T01:58:55.452Z,3.63
2019-05-30T02:01:25.354Z,3.93
2019-05-30T02:03:54.299Z,4.33
2019-05-30T02:06:22.953Z,4.20
2019-05-30T02:08:51.402Z,3.80
2019-05-30T02:11:19.823Z,4.30
2019-05-30T02:13:48.233Z,3.83
2019-05-30T02:16:16.664Z,4.50
2019-05-30T02:18:45.065Z,4.17
2019-05-30T02:21:13.533Z,4.50
2019-05-30T02:23:42.203Z,4.40
2019-05-30T02:26:10.708Z,3.70
2019-05-30T02:28:39.278Z,3.83
2019-05-30T02:31:09.689Z,4.67
2019-05-30T02:33:38.187Z,3.93
2019-05-30T02:36:08.448Z,3.93
2019-05-30T02:38:36.853Z,3.93
2019-05-30T02:41:06.199Z,4.30
2019-05-30T02:43:35.500Z,4.07
2019-05-30T02:46:05.878Z,4.10
2019-05-30T02:48:34.918Z,3.67
2019-05-30T02:51:05.535Z,4.30
2019-05-30T02:53:34.246Z,4.37
2019-05-30T02:56:03.651Z,4.13
2019-05-30T02:58:32.449Z,4.40
2019-05-30T03:01:01.959Z,3.73
2019-05-30T03:03:31.116Z,3.93
2019-05-30T03:05:59.540Z,4.30
2019-05-30T03:08:28.659Z,4.93
2019-05-30T03:10:57.432Z,4.67
2019-05-30T03:13:26.516Z,4.30
2019-05-30T03:15:55.085Z,3.93
2019-05-30T03:18:23.588Z,4.20
2019-05-30T03:20:52.057Z,3.83
2019-05-30T03:23:20.530Z,3.53
2019-05-30T03:25:49.268Z,3.30
2019-05-30T03:28:18.165Z,4.07
2019-05-30T03:30:46.912Z,3.93
2019-05-30T03:33:36.697Z,3.97
2019-05-30T03:35:47.086Z,4.30
2019-05-30T03:38:15.852Z,4.33
2019-05-30T03:40:44.421Z,3.60
2019-05-30T03:43:15.305Z,4.97
2019-05-30T03:45:44.364Z,4.00
2019-05-30T03:48:16.214Z,4.00
2019-05-30T03:50:48.414Z,4.33
2019-05-30T03:53:17.053Z,4.40
2019-05-30T03:55:48.541Z,4.00
2019-05-30T03:58:43.987Z,5.07
2019-05-30T04:01:15.576Z,4.20
2019-05-30T04:03:49.820Z,4.43
2019-05-30T04:06:23.878Z,4.80
2019-05-30T04:08:55.660Z,4.90
2019-05-30T04:11:39.259Z,4.70
2019-05-30T04:14:13.081Z,4.33
2019-05-30T04:16:41.301Z,4.37
2019-05-30T04:19:09.995Z,4.90
2019-05-30T04:21:38.620Z,4.30
2019-05-30T04:24:09.150Z,4.53
2019-05-30T04:26:37.686Z,5.03
2019-05-30T04:29:07.987Z,4.97
2019-05-30T04:31:36.610Z,5.60
2019-05-30T04:34:05.374Z,5.33
2019-05-30T04:36:33.791Z,5.10
2019-05-30T04:39:02.516Z,4.70
2019-05-30T04:41:30.906Z,5.67
2019-05-30T04:43:59.705Z,5.10
2019-05-30T04:46:28.365Z,4.73
2019-05-30T04:48:57.083Z,6.30
2019-05-30T04:51:26.407Z,5.30
2019-05-30T04:53:54.799Z,6.20
2019-05-30T04:56:23.574Z,5.90
2019-05-30T04:58:52.338Z,5.73
2019-05-30T05:01:22.274Z,6.00
2019-05-30T05:03:50.947Z,5.23
2019-05-30T05:06:19.928Z,6.03
2019-05-30T05:08:48.443Z,5.53
2019-05-30T05:11:20.726Z,5.87
2019-05-30T05:13:47.667Z,5.90
2019-05-30T05:16:25.944Z,6.60
2019-05-30T05:18:46.258Z,6.60
2019-05-30T05:21:14.764Z,5.93
2019-05-30T05:23:43.208Z,6.30
2019-05-30T05:26:11.626Z,6.10
2019-05-30T05:28:40.329Z,6.83
2019-05-30T05:31:09.105Z,6.70
2019-05-30T05:33:37.808Z,6.37
2019-05-30T05:36:06.805Z,5.60
2019-05-30T05:38:35.238Z,6.70
2019-05-30T05:41:03.740Z,6.87
2019-05-30T05:43:32.249Z,6.77
2019-05-30T05:46:00.650Z,6.37
2019-05-30T05:48:29.078Z,5.93
2019-05-30T05:50:57.642Z,5.73
2019-05-30T05:53:26.240Z,7.40
2019-05-30T05:55:54.656Z,6.20
2019-05-30T05:58:23.865Z,6.63
2019-05-30T06:00:53.822Z,6.20
2019-05-30T06:03:22.341Z,6.27
2019-05-30T06:05:53.335Z,5.73
2019-05-30T06:08:21.540Z,5.80
2019-05-30T06:10:50.131Z,6.10
2019-05-30T06:13:18.944Z,5.80
2019-05-30T06:15:48.313Z,6.03
2019-05-30T06:18:18.000Z,7.40
2019-05-30T06:20:46.728Z,5.83
2019-05-30T06:23:15.417Z,5.40
2019-05-30T06:25:44.190Z,5.50
2019-05-30T06:28:12.642Z,6.33
2019-05-30T06:30:41.083Z,6.23
2019-05-30T06:33:09.740Z,5.63
2019-05-30T06:35:38.203Z,5.97
2019-05-30T06:38:06.614Z,6.33
2019-05-30T06:40:35.265Z,5.80
2019-05-30T06:43:04.222Z,6.20
2019-05-30T06:45:32.994Z,5.90
2019-05-30T06:48:01.699Z,5.90
2019-05-30T06:50:30.901Z,5.30
2019-05-30T06:52:59.526Z,6.37
2019-05-30T06:55:29.397Z,5.87
2019-05-30T06:57:58.640Z,6.17
2019-05-30T07:00:28.236Z,6.43
2019-05-30T07:02:56.769Z,5.20
2019-05-30T07:05:27.538Z,5.40
2019-05-30T07:07:56.114Z,5.07
2019-05-30T07:10:26.709Z,4.50
2019-05-30T07:12:55.531Z,4.13
2019-05-30T07:15:25.063Z,4.40
2019-05-30T07:17:55.419Z,3.87
2019-05-30T07:20:25.483Z,4.67
2019-05-30T07:22:54.274Z,4.10
2019-05-30T07:25:23.933Z,3.80
2019-05-30T07:27:52.489Z,3.80
2019-05-30T07:30:22.121Z,4.30
2019-05-30T07:32:50.618Z,4.27
2019-05-30T07:35:19.324Z,3.90
2019-05-30T07:37:49.735Z,4.70
2019-05-30T07:40:19.813Z,4.40
2019-05-30T07:42:48.925Z,4.70
2019-05-30T07:45:18.070Z,4.93
2019-05-30T07:47:46.586Z,4.50
2019-05-30T07:50:15.405Z,4.70
2019-05-30T07:52:44.273Z,4.63
2019-05-30T07:55:13.106Z,4.50
2019-05-30T07:57:41.978Z,3.80
2019-05-30T08:00:12.666Z,4.40
2019-05-30T08:02:41.220Z,5.27
2019-05-30T08:05:23.587Z,4.87
2019-05-30T08:07:42.330Z,5.73
2019-05-30T08:10:12.763Z,5.23
2019-05-30T08:12:41.270Z,5.20
2019-05-30T08:15:10.931Z,5.33
2019-05-30T08:17:39.735Z,5.40
2019-05-30T08:20:10.872Z,5.27
2019-05-30T08:22:39.745Z,5.13
2019-05-30T08:25:08.394Z,5.27
2019-05-30T08:27:38.676Z,5.43
2019-05-30T08:30:09.151Z,5.40
2019-05-30T08:32:38.784Z,4.93
2019-05-30T08:35:09.126Z,4.73
2019-05-30T08:37:39.245Z,5.97
2019-05-30T08:40:09.486Z,5.03
2019-05-30T08:42:38.919Z,4.40
2019-05-30T08:45:10.431Z,5.07
2019-05-30T08:47:40.429Z,4.83
2019-05-30T08:50:11.007Z,4.50
2019-05-30T08:52:40.709Z,4.83
2019-05-30T08:55:10.327Z,5.77
2019-05-30T08:57:39.160Z,5.50
2019-05-30T09:00:10.967Z,4.80
2019-05-30T09:02:40.761Z,5.00
2019-05-30T09:05:13.073Z,4.67
2019-05-30T09:07:42.941Z,4.10
2019-05-30T09:10:12.295Z,3.53
2019-05-30T09:12:45.202Z,3.97
2019-05-30T09:15:14.479Z,3.53
2019-05-30T09:17:44.743Z,3.07
2019-05-30T09:20:15.514Z,3.10
2019-05-30T09:22:45.654Z,3.80
2019-05-30T09:25:16.098Z,2.90
2019-05-30T09:27:45.200Z,2.90
2019-05-30T09:30:16.586Z,2.80
2019-05-30T09:32:45.375Z,3.27
2019-05-30T09:35:15.323Z,2.80
2019-05-30T09:37:44.487Z,3.70
2019-05-30T09:40:15.223Z,3.20
2019-05-30T09:42:44.794Z,2.93
2019-05-30T09:45:16.884Z,2.63
2019-05-30T09:47:47.223Z,2.90
2019-05-30T09:50:20.049Z,3.57
2019-05-30T09:52:49.462Z,3.07
2019-05-30T09:55:18.987Z,3.23
2019-05-30T09:57:47.710Z,2.80
2019-05-30T10:00:21.515Z,2.57
2019-05-30T10:02:52.417Z,2.80
2019-05-30T10:05:24.454Z,2.77
2019-05-30T10:07:52.985Z,2.53
2019-05-30T10:10:23.036Z,3.00
2019-05-30T10:12:52.685Z,2.50
2019-05-30T10:15:22.102Z,2.50
2019-05-30T10:17:52.849Z,2.20
2019-05-30T10:20:22.389Z,2.20
2019-05-30T10:22:53.259Z,2.13
2019-05-30T10:25:21.296Z,2.43
2019-05-30T10:27:51.020Z,3.57
2019-05-30T10:30:20.947Z,2.00
2019-05-30T10:32:50.345Z,2.00
2019-05-30T10:35:21.473Z,2.50
2019-05-30T10:37:50.954Z,2.40
2019-05-30T10:40:20.087Z,2.83
2019-05-30T10:42:49.690Z,1.70
2019-05-30T10:45:21.600Z,1.90
2019-05-30T10:47:51.342Z,2.10
2019-05-30T10:50:21.026Z,1.70
2019-05-30T10:52:51.471Z,2.40
2019-05-30T10:55:20.901Z,2.00
2019-05-30T10:57:50.073Z,1.90
2019-05-30T11:00:20.262Z,2.10
2019-05-30T11:02:49.445Z,1.80
2019-05-30T11:05:20.146Z,1.43
2019-05-30T11:08:03.984Z,2.00
2019-05-30T11:10:39.674Z,2.03
2019-05-30T11:13:10.648Z,1.60
2019-05-30T11:15:40.078Z,1.67
2019-05-30T11:18:09.552Z,1.77
2019-05-30T11:20:41.522Z,1.63
2019-05-30T11:23:10.263Z,1.83
2019-05-30T11:25:38.753Z,1.27
2019-05-30T11:28:08.394Z,1.47
2019-05-30T11:30:37.281Z,1.30
2019-05-30T11:33:06.278Z,1.30
2019-05-30T11:35:35.474Z,1.10
2019-05-30T11:38:04.521Z,1.57
2019-05-30T11:40:33.290Z,1.43
2019-05-30T11:43:02.078Z,1.50
2019-05-30T11:45:30.579Z,0.97
2019-05-30T11:48:00.073Z,1.33
2019-05-30T11:50:29.500Z,1.57
2019-05-30T11:52:58.244Z,1.80
2019-05-30T11:55:26.848Z,1.40
2019-05-30T11:57:56.264Z,1.40
2019-05-30T12:00:26.086Z,1.93
2019-05-30T12:02:54.864Z,1.40
2019-05-30T12:05:24.035Z,1.80
2019-05-30T12:07:52.886Z,1.97
2019-05-30T12:10:23.298Z,1.50
2019-05-30T12:12:53.228Z,1.20
2019-05-30T12:15:22.981Z,1.97
2019-05-30T12:17:51.472Z,1.30
2019-05-30T12:20:20.265Z,1.17
2019-05-30T12:22:48.925Z,1.30
2019-05-30T12:25:18.066Z,1.80
2019-05-30T12:27:46.503Z,1.70
2019-05-30T12:30:15.547Z,1.23
2019-05-30T12:32:43.959Z,1.53
2019-05-30T12:35:15.149Z,1.50
2019-05-30T12:37:54.803Z,1.87
2019-05-30T12:40:16.182Z,2.00
2019-05-30T12:42:45.086Z,1.50
2019-05-30T12:45:14.722Z,1.60
2019-05-30T12:47:43.474Z,1.70
2019-05-30T12:50:16.545Z,1.60
2019-05-30T12:52:43.678Z,1.70
2019-05-30T12:55:14.503Z,2.03
2019-05-30T12:57:43.447Z,2.30
2019-05-30T13:00:19.031Z,1.63
2019-05-30T13:02:47.497Z,1.90
2019-05-30T13:05:16.633Z,1.93
2019-05-30T13:07:46.154Z,2.03
2019-05-30T13:10:17.215Z,2.10
2019-05-30T13:12:46.854Z,2.23
2019-05-30T13:15:16.436Z,1.80
2019-05-30T13:17:45.488Z,2.10
2019-05-30T13:20:15.479Z,2.50
2019-05-30T13:22:44.794Z,2.53
2019-05-30T13:25:18.602Z,4.30
2019-05-30T13:27:48.791Z,3.87
2019-05-30T13:30:20.348Z,3.40
2019-05-30T13:32:50.679Z,4.77
2019-05-30T13:35:22.160Z,3.30
2019-05-30T13:37:50.870Z,3.03
2019-05-30T13:40:25.597Z,2.43
2019-05-30T13:42:53.749Z,2.37
2019-05-30T13:45:22.342Z,1.80
2019-05-30T13:47:51.669Z,1.93
2019-05-30T13:50:21.093Z,1.40
2019-05-30T13:52:49.624Z,1.50
2019-05-30T13:55:18.768Z,2.50
2019-05-30T13:57:47.370Z,2.00
2019-05-30T14:00:18.648Z,3.00
2019-05-30T14:02:47.493Z,1.93
2019-05-30T14:05:16.652Z,1.87
2019-05-30T14:07:45.572Z,2.10
2019-05-30T14:10:15.590Z,2.10
2019-05-30T14:12:44.441Z,2.03
2019-05-30T14:15:14.643Z,1.77
2019-05-30T14:17:43.865Z,1.80
2019-05-30T14:20:13.586Z,1.80
2019-05-30T14:22:42.694Z,1.70
2019-05-30T14:25:13.774Z,1.73
2019-05-30T14:27:42.656Z,2.00
2019-05-30T14:30:13.127Z,2.13
2019-05-30T14:32:42.192Z,2.00
2019-05-30T14:35:13.607Z,2.07
2019-05-30T14:37:42.390Z,2.13
2019-05-30T14:40:13.057Z,2.13
2019-05-30T14:42:43.015Z,2.20
2019-05-30T14:45:14.853Z,1.90
2019-05-30T14:47:50.475Z,2.27
2019-05-30T14:50:22.416Z,1.97
2019-05-30T14:52:55.356Z,2.00
2019-05-30T14:55:26.798Z,2.00
2019-05-30T14:57:58.227Z,1.90
2019-05-30T15:00:28.370Z,1.90
2019-05-30T15:02:56.985Z,2.47
2019-05-30T15:05:25.901Z,2.20
2019-05-30T15:07:54.339Z,2.10
2019-05-30T15:10:22.985Z,2.50
2019-05-30T15:12:51.832Z,1.87
2019-05-30T15:15:20.337Z,2.63
2019-05-30T15:17:48.789Z,2.67
2019-05-30T15:20:19.548Z,2.10
2019-05-30T15:22:48.058Z,2.20
2019-05-30T15:25:18.464Z,2.17
2019-05-30T15:27:47.794Z,2.13
2019-05-30T15:30:16.948Z,2.13
2019-05-30T15:32:45.587Z,1.90
2019-05-30T15:35:15.596Z,1.97
2019-05-30T15:37:44.633Z,2.30
2019-05-30T15:40:15.103Z,1.47
2019-05-30T15:42:43.677Z,1.60
2019-05-30T15:45:14.105Z,2.00
2019-05-30T15:47:43.761Z,2.27
2019-05-30T15:50:15.417Z,2.03
2019-05-30T15:52:45.735Z,2.33
2019-05-30T15:55:15.295Z,1.50
2019-05-30T15:57:43.834Z,1.30
2019-05-30T16:00:14.155Z,1.60
2019-05-30T16:02:43.523Z,1.43
2019-05-30T16:05:12.850Z,1.40
2019-05-30T16:07:41.254Z,1.60
2019-05-30T16:10:10.845Z,1.60
2019-05-30T16:12:39.985Z,1.20
2019-05-30T16:15:11.698Z,1.03
2019-05-30T16:17:40.672Z,1.13
2019-05-30T16:20:09.473Z,1.37
2019-05-30T16:22:37.925Z,1.20
2019-05-30T16:25:07.349Z,1.40
2019-05-30T16:27:36.219Z,1.47
2019-05-30T16:30:07.161Z,1.33
2019-05-30T16:32:36.196Z,1.30
2019-05-30T16:35:06.638Z,1.37
2019-05-30T16:37:35.073Z,1.70
2019-05-30T16:40:07.400Z,1.00
2019-05-30T16:42:35.914Z,1.53
2019-05-30T16:45:07.510Z,1.13
2019-05-30T16:47:35.998Z,1.33
2019-05-30T16:50:09.589Z,1.30
2019-05-30T16:52:38.664Z,1.40
2019-05-30T16:55:09.358Z,1.30
2019-05-30T16:57:38.075Z,1.03
2019-05-30T17:00:08.983Z,1.33
2019-05-30T17:02:37.576Z,1.40
2019-05-30T17:05:07.488Z,1.37
2019-05-30T17:07:35.990Z,1.20
2019-05-30T17:10:22.261Z,1.47
2019-05-30T17:12:39.340Z,1.97
2019-05-30T17:15:11.522Z,1.50
2019-05-30T17:17:40.073Z,1.37
2019-05-30T17:20:10.382Z,1.60
2019-05-30T17:22:38.907Z,1.60
2019-05-30T17:25:07.894Z,1.20
2019-05-30T17:27:36.925Z,1.40
2019-05-30T17:30:08.080Z,1.60
2019-05-30T17:32:36.783Z,1.77
2019-05-30T17:35:09.308Z,1.60
2019-05-30T17:37:39.803Z,1.70
2019-05-30T17:40:10.876Z,1.70
2019-05-30T17:42:41.566Z,1.50
2019-05-30T17:45:11.458Z,1.90
2019-05-30T17:47:41.016Z,1.40
2019-05-30T17:50:11.576Z,1.60
2019-05-30T17:52:41.355Z,1.60
2019-05-30T17:55:10.586Z,1.23
2019-05-30T17:57:39.141Z,1.73
2019-05-30T18:00:12.824Z,1.50
2019-05-30T18:02:42.305Z,1.40
2019-05-30T18:05:11.404Z,1.90
2019-05-30T18:07:40.660Z,1.40
2019-05-30T18:10:09.662Z,1.70
2019-05-30T18:12:38.296Z,1.50
2019-05-30T18:15:11.216Z,2.23
2019-05-30T18:17:39.731Z,1.77
2019-05-30T18:20:10.335Z,1.40
2019-05-30T18:22:39.267Z,1.83
2019-05-30T18:25:09.196Z,1.87
2019-05-30T18:27:37.971Z,1.23
2019-05-30T18:30:09.110Z,2.00
2019-05-30T18:32:37.944Z,1.60
2019-05-30T18:35:07.364Z,1.60
2019-05-30T18:37:36.431Z,1.53
2019-05-30T18:40:07.048Z,1.50
2019-05-30T18:42:36.269Z,2.50
2019-05-30T18:45:08.278Z,1.53
2019-05-30T18:47:36.903Z,1.33
2019-05-30T18:50:08.260Z,1.73
2019-05-30T18:52:37.263Z,1.50
2019-05-30T18:55:09.723Z,1.47
2019-05-30T18:57:38.246Z,1.50
2019-05-30T19:00:08.738Z,1.50
2019-05-30T19:02:37.737Z,2.07
2019-05-30T19:05:08.052Z,1.47
2019-05-30T19:07:37.163Z,1.87
2019-05-30T19:10:06.676Z,1.70
2019-05-30T19:12:36.520Z,7.70
2019-05-30T19:15:06.882Z,5.53
2019-05-30T19:17:35.987Z,2.20
2019-05-30T19:20:09.741Z,1.63
2019-05-30T19:22:41.392Z,1.93
2019-05-30T19:25:08.832Z,1.70
2019-05-30T19:27:38.578Z,1.43
2019-05-30T19:30:10.699Z,1.80
2019-05-30T19:32:39.409Z,1.50
2019-05-30T19:35:11.475Z,2.00
2019-05-30T19:37:40.392Z,1.23
2019-05-30T19:40:09.893Z,1.63
2019-05-30T19:42:38.940Z,1.37
2019-05-30T19:45:09.169Z,1.83
2019-05-30T19:47:38.729Z,1.57
2019-05-30T19:50:08.614Z,1.80
2019-05-30T19:52:37.298Z,1.63
2019-05-30T19:55:10.111Z,1.60
2019-05-30T19:57:39.930Z,1.83
2019-05-30T20:00:10.754Z,1.70
2019-05-30T20:02:40.538Z,1.50
2019-05-30T20:05:10.552Z,1.53
2019-05-30T20:07:39.077Z,1.80
2019-05-30T20:10:08.041Z,1.67
2019-05-30T20:12:37.141Z,1.47
2019-05-30T20:15:10.707Z,1.40
2019-05-30T20:17:39.782Z,1.63
2019-05-30T20:20:09.238Z,2.07
2019-05-30T20:22:38.284Z,1.93
2019-05-30T20:25:08.383Z,1.70
2019-05-30T20:27:36.958Z,1.77
2019-05-30T20:30:08.913Z,1.80
2019-05-30T20:32:38.800Z,1.97
2019-05-30T20:35:08.320Z,1.90
2019-05-30T20:37:38.757Z,1.50
2019-05-30T20:40:08.950Z,2.00
2019-05-30T20:42:37.454Z,1.53
2019-05-30T20:45:09.916Z,2.17
2019-05-30T20:47:38.751Z,1.63
2019-05-30T20:50:09.079Z,1.53
2019-05-30T20:52:41.350Z,1.60
2019-05-30T20:55:08.589Z,1.70
2019-05-30T20:57:38.271Z,2.00
2019-05-30T21:00:09.355Z,1.90
2019-05-30T21:02:39.101Z,2.10
2019-05-30T21:05:09.474Z,1.50
2019-05-30T21:07:39.793Z,1.70
2019-05-30T21:10:08.887Z,1.67
2019-05-30T21:12:41.821Z,1.67
2019-05-30T21:15:08.966Z,1.83
2019-05-30T21:17:37.742Z,1.43
2019-05-30T21:20:11.543Z,1.53
2019-05-30T21:22:40.222Z,1.53
2019-05-30T21:25:09.270Z,1.80
2019-05-30T21:27:39.060Z,1.70
2019-05-30T21:30:08.665Z,1.63
2019-05-30T21:32:37.682Z,2.10
2019-05-30T21:35:08.229Z,1.80
2019-05-30T21:37:37.615Z,1.90
2019-05-30T21:40:08.151Z,1.90
2019-05-30T21:42:51.575Z,2.23
2019-05-30T21:45:08.005Z,1.67
2019-05-30T21:47:36.708Z,1.80
2019-05-30T21:50:07.954Z,1.80
2019-05-30T21:52:36.864Z,2.00
2019-05-30T21:55:06.507Z,1.90
2019-05-30T21:57:35.332Z,2.10
2019-05-30T22:00:16.680Z,2.30
2019-05-30T22:02:51.217Z,1.90
2019-05-30T22:05:19.662Z,1.80
2019-05-30T22:07:49.128Z,2.30
2019-05-30T22:10:19.166Z,2.10
2019-05-30T22:12:47.911Z,2.10
2019-05-30T22:15:17.273Z,1.90
2019-05-30T22:17:47.783Z,2.00
2019-05-30T22:20:16.655Z,2.10
2019-05-30T22:22:46.171Z,2.13
2019-05-30T22:25:15.190Z,2.10
2019-05-30T22:27:44.468Z,1.90
2019-05-30T22:30:13.701Z,2.07
2019-05-30T22:32:42.592Z,2.20
2019-05-30T22:35:11.618Z,2.10
2019-05-30T22:37:40.071Z,2.47
2019-05-30T22:40:08.990Z,1.90
2019-05-30T22:42:37.833Z,1.70
2019-05-30T22:45:07.322Z,2.20
2019-05-30T22:47:36.320Z,1.70
2019-05-30T22:50:07.945Z,2.30
2019-05-30T22:52:36.685Z,1.93
2019-05-30T22:55:06.270Z,2.50
2019-05-30T22:57:36.254Z,2.33
2019-05-30T23:00:07.459Z,2.00
2019-05-30T23:02:36.444Z,2.20
2019-05-30T23:05:08.327Z,2.97
2019-05-30T23:07:36.776Z,2.23
2019-05-30T23:10:10.469Z,2.60
2019-05-30T23:12:39.070Z,1.90
2019-05-30T23:15:07.735Z,2.13
2019-05-30T23:17:36.478Z,2.60
2019-05-30T23:20:08.773Z,2.80
2019-05-30T23:22:37.248Z,3.20
2019-05-30T23:25:08.272Z,2.23
2019-05-30T23:27:36.678Z,2.27
2019-05-30T23:30:06.582Z,2.20
2019-05-30T23:32:35.757Z,2.80
2019-05-30T23:35:05.277Z,2.47
2019-05-30T23:37:34.078Z,1.90
2019-05-30T23:40:02.594Z,2.60
2019-05-30T23:42:31.367Z,2.30
2019-05-30T23:44:59.854Z,2.20
2019-05-30T23:47:28.379Z,2.73
2019-05-30T23:49:58.089Z,2.20
2019-05-30T23:52:28.215Z,2.70
2019-05-30T23:54:56.738Z,2.30
2019-05-30T23:57:26.066Z,2.27
2019-05-30T23:59:54.868Z,2.23
